Time;durP1;ratioP1;P1;durP2;ratioP2;P2;SDS_P1;SDS_P2;PMS_P1;PMS_P2;Temp;Humidity;BMP_temperature;BMP_pressure;BME280_temperature;BME280_humidity;BME280_pressure;Samples;Min_cycle;Max_cycle;Signal;HPM_P1;HPM_P2
2023/08/26 00:01:55;;;;;;;913.27;657.70;;;;;;;;;;5086191;28;20027;-58
2023/08/26 00:04:23;;;;;;;909.85;642.45;;;;;;;;;;5085879;28;20271;-59
2023/08/26 00:06:49;;;;;;;906.95;653.55;;;;;;;;;;5081417;28;20028;-56
2023/08/26 00:09:16;;;;;;;911.42;648.05;;;;;;;;;;5086148;28;20500;-58
2023/08/26 00:11:41;;;;;;;909.60;642.10;;;;;;;;;;5085658;28;20466;-58
2023/08/26 00:14:06;;;;;;;910.53;663.80;;;;;;;;;;5100728;28;20109;-58
2023/08/26 00:16:32;;;;;;;909.25;649.10;;;;;;;;;;5085362;28;20020;-58
2023/08/26 00:18:59;;;;;;;908.22;649.28;;;;;;;;;;5085328;28;20028;-60
2023/08/26 00:21:25;;;;;;;910.42;647.25;;;;;;;;;;5084964;28;20552;-58
2023/08/26 00:23:50;;;;;;;908.95;649.35;;;;;;;;;;5084231;28;20111;-58
2023/08/26 00:26:16;;;;;;;914.72;653.60;;;;;;;;;;5086739;28;20516;-55
2023/08/26 00:28:42;;;;;;;915.78;656.75;;;;;;;;;;5081267;28;20354;-54
2023/08/26 00:31:07;;;;;;;913.47;654.13;;;;;;;;;;5086624;28;20031;-57
2023/08/26 00:33:32;;;;;;;907.22;650.50;;;;;;;;;;5083230;28;20091;-59
2023/08/26 00:35:57;;;;;;;852.17;558.38;;;;;;;;;;5085204;28;20024;-58
2023/08/26 00:38:23;;;;;;;853.63;564.87;;;;;;;;;;5083756;28;20024;-59
2023/08/26 00:40:48;;;;;;;851.22;554.90;;;;;;;;;;5085614;28;20268;-56
2023/08/26 00:43:13;;;;;;;866.50;580.10;;;;;;;;;;5083793;28;20462;-56
2023/08/26 00:45:46;;;;;;;855.65;549.58;;;;;;;;;;5086310;28;20020;-56
2023/08/26 00:48:12;;;;;;;859.72;555.53;;;;;;;;;;5082739;28;20031;-56
2023/08/26 00:50:38;;;;;;;865.33;581.50;;;;;;;;;;5086285;28;22172;-59
2023/08/26 00:53:03;;;;;;;859.22;556.30;;;;;;;;;;5082619;28;20060;-58
2023/08/26 00:55:28;;;;;;;852.60;549.95;;;;;;;;;;5085478;28;20020;-58
2023/08/26 00:57:55;;;;;;;848.78;538.05;;;;;;;;;;5085084;28;20085;-58
2023/08/26 01:00:21;;;;;;;851.85;537.58;;;;;;;;;;5085616;28;20016;-57
2023/08/26 01:02:46;;;;;;;852.17;539.67;;;;;;;;;;5082797;28;20086;-57
2023/08/26 01:05:12;;;;;;;850.33;541.00;;;;;;;;;;5083882;28;20065;-57
2023/08/26 01:07:37;;;;;;;853.15;546.05;;;;;;;;;;5083804;28;20028;-58
2023/08/26 01:10:03;;;;;;;861.15;574.63;;;;;;;;;;5084374;28;20028;-57
2023/08/26 01:12:33;;;;;;;859.88;565.88;;;;;;;;;;5083716;28;20022;-55
2023/08/26 01:15:02;;;;;;;849.70;544.25;;;;;;;;;;5085996;28;20020;-57
2023/08/26 01:17:27;;;;;;;851.38;539.75;;;;;;;;;;5083921;28;20016;-57
2023/08/26 01:19:55;;;;;;;860.90;561.63;;;;;;;;;;5084418;28;20096;-54
2023/08/26 01:22:22;;;;;;;851.65;544.65;;;;;;;;;;5081186;28;20066;-55
2023/08/26 01:24:48;;;;;;;853.25;553.40;;;;;;;;;;5085414;28;20271;-55
2023/08/26 01:27:13;;;;;;;849.05;533.25;;;;;;;;;;5085847;28;20461;-57
2023/08/26 01:29:38;;;;;;;851.05;546.22;;;;;;;;;;5087522;28;20470;-55
2023/08/26 01:32:25;;;;;;;850.50;540.58;;;;;;;;;;5085045;28;20552;-55
2023/08/26 01:34:52;;;;;;;858.95;574.67;;;;;;;;;;5087447;28;20270;-56
2023/08/26 01:37:18;;;;;;;871.40;604.50;;;;;;;;;;5084015;28;20107;-55
2023/08/26 01:39:44;;;;;;;881.08;627.10;;;;;;;;;;5083753;28;20027;-53
2023/08/26 01:42:12;;;;;;;873.53;603.95;;;;;;;;;;5085088;28;20027;-58
2023/08/26 01:44:38;;;;;;;891.17;620.17;;;;;;;;;;5081898;28;20042;-55
2023/08/26 01:47:04;;;;;;;887.40;618.63;;;;;;;;;;5083760;28;20501;-55
2023/08/26 01:49:29;;;;;;;890.13;628.53;;;;;;;;;;5084933;28;20111;-58
2023/08/26 01:51:54;;;;;;;865.42;592.40;;;;;;;;;;5082865;28;20609;-54
2023/08/26 01:54:19;;;;;;;878.75;606.58;;;;;;;;;;5084655;28;20035;-54
2023/08/26 01:56:45;;;;;;;881.42;636.80;;;;;;;;;;5082837;28;20427;-57
2023/08/26 01:59:10;;;;;;;881.58;639.08;;;;;;;;;;5084809;28;20055;-57
2023/08/26 02:01:36;;;;;;;870.95;614.60;;;;;;;;;;5083625;28;20042;-56
2023/08/26 02:04:01;;;;;;;852.38;555.83;;;;;;;;;;5083855;28;20027;-58
2023/08/26 02:06:27;;;;;;;844.97;518.70;;;;;;;;;;5082612;28;20541;-57
2023/08/26 02:08:53;;;;;;;845.60;520.20;;;;;;;;;;5082592;28;20455;-58
2023/08/26 02:11:18;;;;;;;845.35;528.88;;;;;;;;;;5083654;28;20035;-57
2023/08/26 02:13:43;;;;;;;844.20;526.33;;;;;;;;;;5082596;28;20473;-55
2023/08/26 02:16:08;;;;;;;838.95;506.77;;;;;;;;;;5082646;28;20084;-55
2023/08/26 02:18:34;;;;;;;891.58;578.22;;;;;;;;;;5083579;28;20475;-56
2023/08/26 02:20:59;;;;;;;839.60;510.50;;;;;;;;;;5085151;28;20024;-54
2023/08/26 02:23:25;;;;;;;842.70;505.85;;;;;;;;;;5080660;28;20810;-54
2023/08/26 02:25:50;;;;;;;840.53;511.75;;;;;;;;;;5076831;28;20024;-55
2023/08/26 02:28:15;;;;;;;837.78;508.60;;;;;;;;;;5083899;28;20333;-55
2023/08/26 02:30:41;;;;;;;836.63;504.13;;;;;;;;;;5083923;28;20054;-56
2023/08/26 02:33:07;;;;;;;835.35;504.63;;;;;;;;;;5083061;28;20024;-55
2023/08/26 02:35:33;;;;;;;908.38;659.83;;;;;;;;;;5082339;28;20074;-56
2023/08/26 02:37:59;;;;;;;841.33;511.48;;;;;;;;;;5074564;28;20023;-57
2023/08/26 02:40:24;;;;;;;834.88;496.77;;;;;;;;;;5084044;28;20024;-57
2023/08/26 02:42:49;;;;;;;836.80;496.70;;;;;;;;;;5082120;28;20347;-57
2023/08/26 02:45:15;;;;;;;837.22;504.92;;;;;;;;;;5096499;28;20474;-56
2023/08/26 02:47:40;;;;;;;837.67;493.88;;;;;;;;;;5081117;28;20032;-57
2023/08/26 02:50:05;;;;;;;894.03;629.90;;;;;;;;;;5084763;28;20337;-55
2023/08/26 02:52:31;;;;;;;878.75;544.40;;;;;;;;;;5081132;28;20127;-57
2023/08/26 02:54:56;;;;;;;889.67;569.75;;;;;;;;;;5084303;28;20154;-57
2023/08/26 02:57:21;;;;;;;894.88;588.13;;;;;;;;;;5082309;28;20477;-54
2023/08/26 02:59:46;;;;;;;891.63;581.47;;;;;;;;;;5084406;28;20068;-57
2023/08/26 03:02:12;;;;;;;884.92;567.75;;;;;;;;;;5082172;28;20027;-58
2023/08/26 03:04:37;;;;;;;887.58;571.97;;;;;;;;;;5084652;28;20023;-56
2023/08/26 03:07:02;;;;;;;886.70;589.63;;;;;;;;;;5079888;28;20036;-55
2023/08/26 03:09:28;;;;;;;890.65;575.47;;;;;;;;;;5082111;28;20260;-55
2023/08/26 03:11:57;;;;;;;886.63;568.63;;;;;;;;;;5082783;28;20031;-57
2023/08/26 03:14:23;;;;;;;886.42;547.97;;;;;;;;;;5081989;28;20031;-57
2023/08/26 03:16:48;;;;;;;901.22;594.50;;;;;;;;;;5063805;28;20378;-57
2023/08/26 03:19:13;;;;;;;907.53;627.45;;;;;;;;;;5084455;28;20162;-57
2023/08/26 03:21:39;;;;;;;911.35;638.17;;;;;;;;;;5063611;28;20392;-57
2023/08/26 03:24:04;;;;;;;887.85;571.67;;;;;;;;;;5084714;28;20142;-59
2023/08/26 03:26:29;;;;;;;887.83;562.95;;;;;;;;;;5068258;28;20056;-55
2023/08/26 03:28:55;;;;;;;915.63;670.77;;;;;;;;;;5085593;28;20393;-58
2023/08/26 03:31:20;;;;;;;880.55;599.15;;;;;;;;;;5087290;28;20284;-58
2023/08/26 03:33:45;;;;;;;911.00;636.72;;;;;;;;;;5085109;28;20024;-57
2023/08/26 03:36:11;;;;;;;851.67;531.20;;;;;;;;;;5086647;28;20030;-57
2023/08/26 03:38:36;;;;;;;838.65;484.75;;;;;;;;;;5086926;28;20078;-58
2023/08/26 03:41:05;;;;;;;839.55;487.20;;;;;;;;;;5087722;28;20128;-55
2023/08/26 03:43:30;;;;;;;835.05;481.30;;;;;;;;;;5085033;28;20088;-59
2023/08/26 03:45:55;;;;;;;830.00;476.13;;;;;;;;;;5101708;28;20118;-57
2023/08/26 03:48:21;;;;;;;835.13;488.50;;;;;;;;;;5085285;28;20020;-57
2023/08/26 03:50:49;;;;;;;837.95;477.70;;;;;;;;;;5079561;28;20036;-58
2023/08/26 03:53:15;;;;;;;843.17;503.27;;;;;;;;;;5080374;28;20047;-57
2023/08/26 03:55:41;;;;;;;854.25;528.92;;;;;;;;;;5085545;28;20020;-59
2023/08/26 03:58:06;;;;;;;838.92;487.30;;;;;;;;;;5083991;28;20035;-58
2023/08/26 04:00:32;;;;;;;840.42;497.75;;;;;;;;;;5081774;28;20261;-59
2023/08/26 04:02:57;;;;;;;862.05;570.65;;;;;;;;;;5084026;28;20530;-59
2023/08/26 04:05:24;;;;;;;858.63;571.15;;;;;;;;;;5084589;28;20180;-56
2023/08/26 04:07:49;;;;;;;873.58;614.25;;;;;;;;;;5085311;28;20020;-58
2023/08/26 04:10:14;;;;;;;852.40;532.00;;;;;;;;;;5086316;28;20027;-55
2023/08/26 04:12:40;;;;;;;931.83;658.63;;;;;;;;;;5083355;28;20279;-58
2023/08/26 04:15:05;;;;;;;841.00;489.70;;;;;;;;;;5086619;28;20107;-59
2023/08/26 04:17:30;;;;;;;889.60;604.97;;;;;;;;;;5084745;28;20921;-55
2023/08/26 04:19:56;;;;;;;898.75;600.63;;;;;;;;;;5086890;28;20031;-59
2023/08/26 04:22:21;;;;;;;885.92;608.28;;;;;;;;;;5083600;28;20472;-59
2023/08/26 04:24:46;;;;;;;899.08;604.17;;;;;;;;;;5083832;28;20034;-55
2023/08/26 04:27:12;;;;;;;887.47;615.03;;;;;;;;;;5066319;28;20040;-56
2023/08/26 04:29:37;;;;;;;902.17;618.85;;;;;;;;;;5085940;28;20059;-57
2023/08/26 04:32:02;;;;;;;890.80;600.95;;;;;;;;;;5084651;28;20500;-58
2023/08/26 04:34:28;;;;;;;899.33;609.90;;;;;;;;;;5080744;28;20078;-58
2023/08/26 04:36:53;;;;;;;894.95;633.58;;;;;;;;;;5083803;28;20028;-59
2023/08/26 04:39:20;;;;;;;894.77;631.87;;;;;;;;;;5083071;28;20444;-53
2023/08/26 04:41:45;;;;;;;886.05;605.92;;;;;;;;;;5082268;28;20356;-59
2023/08/26 04:44:12;;;;;;;903.42;621.38;;;;;;;;;;5084034;28;20150;-57
2023/08/26 04:46:37;;;;;;;907.90;608.22;;;;;;;;;;5081359;28;20409;-58
2023/08/26 04:49:03;;;;;;;901.58;605.13;;;;;;;;;;5085744;28;20047;-58
2023/08/26 04:51:28;;;;;;;905.35;605.35;;;;;;;;;;5085379;28;20036;-56
2023/08/26 04:53:53;;;;;;;894.03;568.03;;;;;;;;;;5084003;28;20066;-56
2023/08/26 04:56:19;;;;;;;895.60;585.17;;;;;;;;;;5084978;28;20028;-57
2023/08/26 04:58:44;;;;;;;919.67;638.55;;;;;;;;;;5084821;28;20020;-58
2023/08/26 05:01:10;;;;;;;933.75;684.22;;;;;;;;;;5085401;28;20367;-58
2023/08/26 05:03:36;;;;;;;938.50;693.67;;;;;;;;;;5083927;28;20024;-58
2023/08/26 05:06:03;;;;;;;936.63;684.20;;;;;;;;;;5085033;28;20028;-58
2023/08/26 05:08:28;;;;;;;917.20;625.50;;;;;;;;;;5083500;28;20035;-56
2023/08/26 05:10:54;;;;;;;938.87;684.73;;;;;;;;;;5084955;28;20027;-59
2023/08/26 05:13:19;;;;;;;968.43;741.90;;;;;;;;;;5083257;28;20268;-58
2023/08/26 05:15:44;;;;;;;976.67;769.58;;;;;;;;;;5085522;28;20722;-56
2023/08/26 05:18:09;;;;;;;984.33;776.88;;;;;;;;;;5098287;28;20032;-57
2023/08/26 05:20:35;;;;;;;965.40;778.63;;;;;;;;;;5085424;28;20020;-59
2023/08/26 05:23:00;;;;;;;984.38;797.70;;;;;;;;;;5082690;28;20268;-59
2023/08/26 05:25:25;;;;;;;913.75;707.97;;;;;;;;;;5085347;28;20068;-53
2023/08/26 05:27:51;;;;;;;908.33;708.92;;;;;;;;;;5081858;28;20332;-56
2023/08/26 05:30:16;;;;;;;909.38;720.47;;;;;;;;;;5085155;28;20032;-58
2023/08/26 05:32:41;;;;;;;947.37;792.87;;;;;;;;;;5082501;28;20748;-56
2023/08/26 05:35:07;;;;;;;1014.00;849.63;;;;;;;;;;5085171;28;20248;-58
2023/08/26 05:37:32;;;;;;;1008.22;855.55;;;;;;;;;;5084008;28;20024;-58
2023/08/26 05:39:57;;;;;;;924.63;758.40;;;;;;;;;;5085112;28;20024;-56
2023/08/26 05:42:22;;;;;;;925.73;747.70;;;;;;;;;;5080700;28;20352;-58
2023/08/26 05:44:48;;;;;;;925.60;751.43;;;;;;;;;;5084708;28;20241;-56
2023/08/26 05:47:13;;;;;;;924.53;770.65;;;;;;;;;;5078472;28;20262;-58
2023/08/26 05:49:38;;;;;;;933.47;777.33;;;;;;;;;;5064819;28;20416;-56
2023/08/26 05:52:04;;;;;;;928.47;785.80;;;;;;;;;;5068257;28;20044;-57
2023/08/26 05:54:29;;;;;;;934.13;787.08;;;;;;;;;;5077162;28;20288;-57
2023/08/26 05:56:54;;;;;;;926.93;793.07;;;;;;;;;;5065657;28;20029;-58
2023/08/26 05:59:19;;;;;;;928.70;795.57;;;;;;;;;;5098973;28;20259;-57
2023/08/26 06:01:45;;;;;;;932.97;793.20;;;;;;;;;;5083569;28;20648;-57
2023/08/26 06:04:10;;;;;;;934.47;801.25;;;;;;;;;;5084741;28;20019;-56
2023/08/26 06:06:36;;;;;;;939.60;805.38;;;;;;;;;;5080995;28;20402;-57
2023/08/26 06:09:02;;;;;;;944.33;818.85;;;;;;;;;;5083541;28;20081;-57
2023/08/26 06:11:27;;;;;;;945.70;820.03;;;;;;;;;;5083875;28;20485;-59
2023/08/26 06:13:53;;;;;;;945.63;831.60;;;;;;;;;;5082561;28;20038;-57
2023/08/26 06:16:21;;;;;;;948.55;834.88;;;;;;;;;;5083134;28;20028;-58
2023/08/26 06:18:47;;;;;;;952.63;831.92;;;;;;;;;;5082576;28;20039;-58
2023/08/26 06:21:12;;;;;;;950.88;840.33;;;;;;;;;;5084946;28;20494;-54
2023/08/26 06:23:38;;;;;;;955.60;847.92;;;;;;;;;;5083406;28;20020;-58
2023/08/26 06:26:03;;;;;;;962.47;853.90;;;;;;;;;;5083390;28;20370;-59
2023/08/26 06:28:28;;;;;;;973.30;866.23;;;;;;;;;;5082558;28;20394;-57
2023/08/26 06:31:00;;;;;;;989.85;882.03;;;;;;;;;;5083795;28;20891;-55
2023/08/26 06:33:26;;;;;;;765.03;678.40;;;;;;;;;;5080917;28;20035;-56
2023/08/26 06:35:51;;;;;;;13.90;7.28;;;;;;;;;;5083055;28;20029;-56
2023/08/26 06:38:16;;;;;;;14.93;7.90;;;;;;;;;;5082766;28;20106;-55
2023/08/26 06:40:42;;;;;;;16.10;6.97;;;;;;;;;;5084271;28;20461;-57
2023/08/26 06:43:07;;;;;;;15.93;8.63;;;;;;;;;;5082152;28;20111;-58
2023/08/26 06:45:32;;;;;;;19.73;7.22;;;;;;;;;;5084298;28;20021;-55
2023/08/26 06:47:58;;;;;;;13.43;7.23;;;;;;;;;;5080475;28;20086;-57
2023/08/26 06:50:23;;;;;;;12.73;7.07;;;;;;;;;;5084078;28;20284;-58
2023/08/26 06:52:49;;;;;;;12.10;7.22;;;;;;;;;;5082129;28;20044;-56
2023/08/26 06:55:18;;;;;;;21.58;7.35;;;;;;;;;;5082768;28;20077;-56
2023/08/26 06:57:43;;;;;;;13.95;6.82;;;;;;;;;;5085881;28;20487;-58
2023/08/26 07:00:09;;;;;;;16.42;7.35;;;;;;;;;;5082327;28;20036;-55
2023/08/26 07:02:34;;;;;;;14.82;6.50;;;;;;;;;;5075205;28;20028;-57
2023/08/26 07:05:00;;;;;;;20.73;6.20;;;;;;;;;;5085530;28;20051;-54
2023/08/26 07:07:25;;;;;;;23.53;7.47;;;;;;;;;;5086112;28;20106;-56
2023/08/26 07:09:50;;;;;;;16.57;6.57;;;;;;;;;;5088247;28;20023;-58
2023/08/26 07:12:15;;;;;;;20.57;6.87;;;;;;;;;;5087503;28;20503;-56
2023/08/26 07:14:41;;;;;;;15.27;7.00;;;;;;;;;;5087272;28;20035;-56
2023/08/26 07:17:06;;;;;;;16.77;7.40;;;;;;;;;;5085694;28;20080;-58
2023/08/26 07:19:32;;;;;;;13.32;6.72;;;;;;;;;;5084805;28;20341;-55
2023/08/26 07:21:57;;;;;;;12.23;6.47;;;;;;;;;;5085514;28;20085;-57
2023/08/26 07:24:22;;;;;;;1066.90;955.03;;;;;;;;;;5088059;28;20028;-57
2023/08/26 07:26:47;;;;;;;1068.57;956.80;;;;;;;;;;5085771;28;20272;-56
2023/08/26 07:29:13;;;;;;;1084.50;970.33;;;;;;;;;;5087701;28;20327;-58
2023/08/26 07:31:38;;;;;;;1076.57;962.50;;;;;;;;;;5085977;28;20497;-57
2023/08/26 07:34:03;;;;;;;1079.05;965.28;;;;;;;;;;5084051;28;20134;-57
2023/08/26 07:36:29;;;;;;;1069.10;956.03;;;;;;;;;;5086521;28;20055;-56
2023/08/26 07:38:54;;;;;;;1078.83;965.53;;;;;;;;;;5085236;28;20307;-58
2023/08/26 07:41:19;;;;;;;1082.05;968.90;;;;;;;;;;5081621;28;20024;-53
2023/08/26 07:43:44;;;;;;;1078.27;964.97;;;;;;;;;;5100008;28;20130;-56
2023/08/26 07:46:10;;;;;;;1072.83;959.90;;;;;;;;;;5087438;28;20245;-57
2023/08/26 07:48:35;;;;;;;1086.70;972.72;;;;;;;;;;5085310;28;20265;-58
2023/08/26 07:51:00;;;;;;;1087.50;973.53;;;;;;;;;;5084975;28;20032;-53
2023/08/26 07:53:26;;;;;;;1083.73;969.43;;;;;;;;;;5084619;28;20288;-57
2023/08/26 07:55:51;;;;;;;1098.82;983.30;;;;;;;;;;5087286;28;20488;-57
2023/08/26 07:58:16;;;;;;;1092.90;977.80;;;;;;;;;;5084543;28;20020;-56
2023/08/26 08:00:42;;;;;;;1094.10;979.50;;;;;;;;;;5101452;28;20101;-54
2023/08/26 08:03:07;;;;;;;1098.32;983.55;;;;;;;;;;5084883;28;20267;-57
2023/08/26 08:05:32;;;;;;;1097.77;983.40;;;;;;;;;;5083546;28;20342;-54
2023/08/26 08:07:58;;;;;;;1099.93;984.97;;;;;;;;;;5083174;28;20314;-56
2023/08/26 08:10:23;;;;;;;1113.18;995.92;;;;;;;;;;5086199;28;20377;-56
2023/08/26 08:12:48;;;;;;;1110.80;993.92;;;;;;;;;;5084544;28;20054;-56
2023/08/26 08:15:14;;;;;;;1110.05;993.20;;;;;;;;;;5084582;28;20558;-54
2023/08/26 08:17:39;;;;;;;1115.20;997.33;;;;;;;;;;5085733;28;20063;-57
2023/08/26 08:20:05;;;;;;;1114.90;997.20;;;;;;;;;;5086531;28;20048;-57
2023/08/26 08:22:38;;;;;;;1122.30;999.25;;;;;;;;;;5085268;28;20024;-57
2023/08/26 08:25:04;;;;;;;1123.30;999.22;;;;;;;;;;5085376;28;20024;-56
2023/08/26 08:27:30;;;;;;;1135.60;999.90;;;;;;;;;;5086013;28;20360;-55
2023/08/26 08:29:57;;;;;;;1132.30;999.90;;;;;;;;;;5086758;28;20111;-57
2023/08/26 08:32:22;;;;;;;1136.82;999.90;;;;;;;;;;5085533;28;20023;-58
2023/08/26 08:34:47;;;;;;;1142.15;999.90;;;;;;;;;;5084336;28;20024;-58
2023/08/26 08:37:12;;;;;;;1122.47;999.90;;;;;;;;;;5085105;28;20034;-57
2023/08/26 08:39:38;;;;;;;1120.97;999.90;;;;;;;;;;5085325;28;20403;-56
2023/08/26 08:42:04;;;;;;;1139.33;999.90;;;;;;;;;;5085430;28;20063;-57
2023/08/26 08:44:32;;;;;;;1168.93;999.90;;;;;;;;;;5083905;28;20272;-58
2023/08/26 08:46:58;;;;;;;1157.47;999.90;;;;;;;;;;5084330;28;20168;-58
2023/08/26 08:49:24;;;;;;;1144.10;999.90;;;;;;;;;;5085916;28;20020;-56
2023/08/26 08:51:50;;;;;;;1178.63;999.90;;;;;;;;;;5083594;28;20047;-57
2023/08/26 08:54:16;;;;;;;1194.90;999.90;;;;;;;;;;5084588;28;20079;-56
2023/08/26 08:56:41;;;;;;;1182.50;999.90;;;;;;;;;;5084973;28;20028;-58
2023/08/26 08:59:06;;;;;;;1152.30;999.90;;;;;;;;;;5083315;28;20056;-58
2023/08/26 09:01:32;;;;;;;1126.90;999.90;;;;;;;;;;5065712;28;20448;-57
2023/08/26 09:03:57;;;;;;;1151.47;999.90;;;;;;;;;;5085657;28;20039;-58
2023/08/26 09:06:23;;;;;;;1153.72;999.90;;;;;;;;;;5097714;28;20024;-59
2023/08/26 09:08:48;;;;;;;1173.30;999.90;;;;;;;;;;5082898;28;20073;-59
2023/08/26 09:11:14;;;;;;;1260.95;999.90;;;;;;;;;;5081967;28;20480;-56
2023/08/26 09:13:39;;;;;;;1196.65;999.90;;;;;;;;;;5081708;28;20024;-59
2023/08/26 09:16:04;;;;;;;1153.27;999.90;;;;;;;;;;5078195;28;20047;-58
2023/08/26 09:18:30;;;;;;;1157.93;999.90;;;;;;;;;;5079741;28;20626;-58
2023/08/26 09:20:55;;;;;;;1158.23;999.90;;;;;;;;;;5084171;28;20056;-59
2023/08/26 09:23:20;;;;;;;1150.78;999.90;;;;;;;;;;5083658;28;20263;-59
2023/08/26 09:25:53;;;;;;;1124.73;999.90;;;;;;;;;;5081649;28;20739;-56
2023/08/26 09:28:18;;;;;;;1126.13;999.90;;;;;;;;;;5083126;28;20290;-59
2023/08/26 09:31:00;;;;;;;1122.50;999.40;;;;;;;;;;5085323;28;20036;-57
2023/08/26 09:33:25;;;;;;;1119.35;998.45;;;;;;;;;;5083593;28;20460;-60
2023/08/26 09:35:50;;;;;;;1120.20;999.30;;;;;;;;;;5085891;28;20020;-59
2023/08/26 09:38:16;;;;;;;1119.20;999.07;;;;;;;;;;5082923;28;20284;-56
2023/08/26 09:40:41;;;;;;;1168.37;999.90;;;;;;;;;;5084914;28;20321;-59
2023/08/26 09:43:08;;;;;;;1142.30;999.90;;;;;;;;;;5081719;28;20012;-57
2023/08/26 09:45:36;;;;;;;1141.38;999.90;;;;;;;;;;5082680;28;20318;-60
2023/08/26 09:48:02;;;;;;;1161.85;999.90;;;;;;;;;;5083282;28;20020;-59
2023/08/26 09:50:31;;;;;;;1134.40;999.90;;;;;;;;;;5085048;28;20042;-58
2023/08/26 09:52:56;;;;;;;1146.85;999.90;;;;;;;;;;5082782;28;20566;-59
2023/08/26 09:55:22;;;;;;;1173.53;999.90;;;;;;;;;;5082348;28;20053;-56
2023/08/26 09:57:47;;;;;;;1265.32;999.90;;;;;;;;;;5080642;28;20024;-60
2023/08/26 10:00:15;;;;;;;1215.18;999.90;;;;;;;;;;5085188;28;20474;-57
2023/08/26 10:02:50;;;;;;;1170.38;999.90;;;;;;;;;;5082069;28;20130;-55
2023/08/26 10:05:16;;;;;;;1266.57;999.90;;;;;;;;;;5083902;28;20047;-59
2023/08/26 10:07:45;;;;;;;1244.63;999.90;;;;;;;;;;5097859;28;20105;-55
2023/08/26 10:10:13;;;;;;;1238.53;999.90;;;;;;;;;;5085049;28;20397;-56
2023/08/26 10:12:43;;;;;;;1220.57;999.90;;;;;;;;;;5098708;28;20730;-58
2023/08/26 10:15:12;;;;;;;1258.25;999.90;;;;;;;;;;5084155;28;20327;-55
2023/08/26 10:17:39;;;;;;;1165.43;999.90;;;;;;;;;;5082702;28;20020;-59
2023/08/26 10:20:05;;;;;;;1199.25;999.90;;;;;;;;;;5086547;28;20024;-58
2023/08/26 10:22:30;;;;;;;1214.72;999.90;;;;;;;;;;5083954;28;20023;-59
2023/08/26 10:24:56;;;;;;;1157.20;999.90;;;;;;;;;;5085327;28;20020;-57
2023/08/26 10:27:21;;;;;;;1271.93;999.90;;;;;;;;;;5082795;28;20019;-59
2023/08/26 10:29:47;;;;;;;1179.60;999.90;;;;;;;;;;5083891;28;20032;-57
2023/08/26 10:32:19;;;;;;;1145.72;999.90;;;;;;;;;;5083173;28;20030;-57
2023/08/26 10:34:54;;;;;;;1159.25;999.90;;;;;;;;;;5086255;28;20035;-58
2023/08/26 10:37:22;;;;;;;1148.78;999.90;;;;;;;;;;5086355;28;20028;-56
2023/08/26 10:39:47;;;;;;;1140.82;999.90;;;;;;;;;;5088964;28;20020;-56
2023/08/26 10:42:14;;;;;;;1142.03;999.90;;;;;;;;;;5088801;28;20085;-56
2023/08/26 10:44:41;;;;;;;1236.88;999.90;;;;;;;;;;5067995;28;20402;-57
2023/08/26 10:47:07;;;;;;;1157.15;999.90;;;;;;;;;;5068482;28;20071;-57
2023/08/26 10:49:33;;;;;;;1240.85;999.90;;;;;;;;;;5068677;28;20539;-57
2023/08/26 10:52:15;;;;;;;1149.05;999.90;;;;;;;;;;5068205;28;20515;-59
2023/08/26 10:54:42;;;;;;;1181.50;999.90;;;;;;;;;;5067525;28;20517;-56
2023/08/26 10:57:07;;;;;;;1156.72;999.90;;;;;;;;;;5069456;28;20115;-56
2023/08/26 10:59:42;;;;;;;1146.97;999.90;;;;;;;;;;5067666;28;20119;-55
2023/08/26 11:02:08;;;;;;;1138.57;999.90;;;;;;;;;;5068023;28;20020;-56
2023/08/26 11:04:43;;;;;;;1134.65;999.90;;;;;;;;;;5068257;28;20021;-59
2023/08/26 11:07:15;;;;;;;1138.07;999.90;;;;;;;;;;5068466;28;20123;-57
2023/08/26 11:09:40;;;;;;;1141.18;999.90;;;;;;;;;;5067797;28;20028;-54
2023/08/26 11:12:21;;;;;;;1172.53;999.90;;;;;;;;;;5068014;28;20205;-55
2023/08/26 11:14:46;;;;;;;1222.82;999.90;;;;;;;;;;5068190;28;20470;-58
2023/08/26 11:17:12;;;;;;;1197.23;999.90;;;;;;;;;;5068870;28;20016;-58
2023/08/26 11:19:38;;;;;;;1180.88;999.90;;;;;;;;;;5067824;28;20027;-57
2023/08/26 11:22:04;;;;;;;1204.53;999.90;;;;;;;;;;5067302;28;20043;-55
2023/08/26 11:24:30;;;;;;;1264.73;999.90;;;;;;;;;;5088150;28;20019;-56
2023/08/26 11:26:55;;;;;;;1189.57;999.90;;;;;;;;;;5086107;28;20737;-58
2023/08/26 11:29:20;;;;;;;1233.27;999.90;;;;;;;;;;5088008;28;20026;-58
2023/08/26 11:31:45;;;;;;;1282.40;999.90;;;;;;;;;;5088132;28;20063;-56
2023/08/26 11:34:11;;;;;;;1181.83;999.90;;;;;;;;;;5081435;28;20063;-55
2023/08/26 11:36:36;;;;;;;1175.83;999.90;;;;;;;;;;5068442;28;20521;-57
2023/08/26 11:39:01;;;;;;;1255.67;999.90;;;;;;;;;;5067978;28;20066;-57
2023/08/26 11:41:27;;;;;;;1263.18;999.90;;;;;;;;;;5067211;28;20545;-58
2023/08/26 11:43:52;;;;;;;1218.53;999.90;;;;;;;;;;5066860;28;20111;-58
2023/08/26 11:46:18;;;;;;;1137.80;999.90;;;;;;;;;;5080044;28;20381;-58
2023/08/26 11:48:44;;;;;;;1229.22;999.90;;;;;;;;;;5087611;28;20024;-58
2023/08/26 11:51:09;;;;;;;1158.97;999.90;;;;;;;;;;5080634;28;20105;-58
2023/08/26 11:53:35;;;;;;;1151.50;999.90;;;;;;;;;;5067375;28;20060;-57
2023/08/26 11:56:00;;;;;;;1237.82;999.90;;;;;;;;;;5067034;28;20111;-58
2023/08/26 11:58:26;;;;;;;1174.07;999.90;;;;;;;;;;5081613;28;20021;-58
2023/08/26 12:00:51;;;;;;;1173.53;999.90;;;;;;;;;;5079633;28;20028;-58
2023/08/26 12:03:17;;;;;;;1244.00;999.90;;;;;;;;;;5087201;28;20035;-57
2023/08/26 12:05:48;;;;;;;1225.90;999.90;;;;;;;;;;5087577;28;20028;-58
2023/08/26 12:08:14;;;;;;;1246.25;999.90;;;;;;;;;;5079761;28;20241;-57
2023/08/26 12:10:39;;;;;;;1218.65;999.90;;;;;;;;;;5067281;28;20029;-57
2023/08/26 12:13:05;;;;;;;1203.90;999.90;;;;;;;;;;5077022;28;20027;-56
2023/08/26 12:15:30;;;;;;;1183.20;999.90;;;;;;;;;;5086948;28;20158;-58
2023/08/26 12:17:55;;;;;;;1275.85;999.90;;;;;;;;;;5084587;28;20025;-55
2023/08/26 12:20:31;;;;;;;1224.93;999.90;;;;;;;;;;5081064;28;20020;-55
2023/08/26 12:23:00;;;;;;;1253.18;999.90;;;;;;;;;;5086783;28;20028;-57
2023/08/26 12:25:27;;;;;;;1249.38;999.90;;;;;;;;;;5086273;28;20020;-57
2023/08/26 12:27:52;;;;;;;1183.80;999.90;;;;;;;;;;5086897;28;20023;-58
2023/08/26 12:30:19;;;;;;;1215.63;999.90;;;;;;;;;;5067515;28;20040;-56
2023/08/26 12:32:45;;;;;;;1260.82;999.90;;;;;;;;;;5085577;28;20508;-55
2023/08/26 12:35:10;;;;;;;1157.30;999.90;;;;;;;;;;5086727;28;20027;-57
2023/08/26 12:37:36;;;;;;;1150.90;999.90;;;;;;;;;;5086386;28;20335;-57
2023/08/26 12:40:04;;;;;;;1162.38;999.90;;;;;;;;;;5083865;28;20809;-57
2023/08/26 12:42:29;;;;;;;1145.00;999.90;;;;;;;;;;5075540;28;20016;-57
2023/08/26 12:44:55;;;;;;;1188.35;999.90;;;;;;;;;;5080131;28;20440;-57
2023/08/26 12:47:20;;;;;;;1235.37;999.90;;;;;;;;;;5066020;28;20025;-57
2023/08/26 12:49:45;;;;;;;1184.40;999.90;;;;;;;;;;5066148;28;20052;-57
2023/08/26 12:52:10;;;;;;;1164.40;999.90;;;;;;;;;;5065808;28;20071;-54
2023/08/26 12:54:36;;;;;;;1185.67;999.90;;;;;;;;;;5065521;28;20116;-57
2023/08/26 12:57:01;;;;;;;1250.30;999.90;;;;;;;;;;5066116;28;20025;-57
2023/08/26 12:59:26;;;;;;;1247.13;999.90;;;;;;;;;;5066434;28;20366;-58
2023/08/26 13:01:52;;;;;;;1257.47;999.90;;;;;;;;;;5065932;28;20745;-56
2023/08/26 13:04:17;;;;;;;1259.17;999.90;;;;;;;;;;5073071;28;20688;-58
2023/08/26 13:06:42;;;;;;;1260.93;999.90;;;;;;;;;;5084056;28;20244;-57
2023/08/26 13:09:07;;;;;;;1213.60;999.90;;;;;;;;;;5085652;28;20484;-57
2023/08/26 13:11:32;;;;;;;1165.63;999.90;;;;;;;;;;5083715;28;20073;-56
2023/08/26 13:13:58;;;;;;;1222.87;999.90;;;;;;;;;;5086168;28;20034;-58
2023/08/26 13:16:23;;;;;;;1189.13;999.90;;;;;;;;;;5080509;28;20245;-57
2023/08/26 13:18:48;;;;;;;1133.57;999.90;;;;;;;;;;5085615;28;20012;-57
2023/08/26 13:21:14;;;;;;;1139.33;999.90;;;;;;;;;;5084336;28;20745;-57
2023/08/26 13:23:39;;;;;;;1147.50;999.90;;;;;;;;;;5082963;28;20351;-56
2023/08/26 13:26:04;;;;;;;1253.80;999.90;;;;;;;;;;5085861;28;20055;-57
2023/08/26 13:28:29;;;;;;;1247.37;999.90;;;;;;;;;;5083048;28;20031;-58
2023/08/26 13:30:56;;;;;;;1196.00;999.90;;;;;;;;;;5065282;28;20281;-56
2023/08/26 13:33:22;;;;;;;1152.85;999.90;;;;;;;;;;5064481;28;20024;-58
2023/08/26 13:35:47;;;;;;;1163.00;999.90;;;;;;;;;;5064840;28;20039;-57
2023/08/26 13:38:12;;;;;;;1114.50;997.33;;;;;;;;;;5065385;28;20031;-58
2023/08/26 13:40:37;;;;;;;1114.87;997.73;;;;;;;;;;5065454;28;20253;-58
2023/08/26 13:43:03;;;;;;;1115.63;998.10;;;;;;;;;;5063559;28;20081;-57